עמוד ראשי
METAR-TAF:

METAR-TAF

שדות תעופה :

Old Crow, יוקון, קנדה

קו רוחב: 67-34N, קו אורך: 139-49W, גובה: 251מטר

תצפית מזג אוויר נוכחית

הדו"ח נערך לפני 15 שעות ו 14דקות, בשעה 20:00 UTC
רוח 5קשר מכיוון מזרח/דרום-מזרח, משתנה בין מזרח/צפון-מזרח ו דרום
טמפרטורת 21 צלסיוס
לחות 38%
לחץ 1011 hPa
ראות: 56.3קילומטר
מעט עננים בגובה 4400רגל
מעט עננים בגובה 18000רגל
מעט עננים בגובה 24000רגל

METAR: CYOC 112000Z 12005KT 070V180 35SM FEW044 FEW180 FEW240 21/06 A2986 RMK CU1AC1CI2 CU TR AC TR LAST STFD OBS/NXT 121300Z SLP119 DENSITY ALT 1900FT

זמן: 04:14 (11:14 UTC)


TAF: חסר

תצפיות ותחזיות מזג אוויר לגבי יותר מ- 4,000 שדות תעופה ברחבי העולם. דוחות METAR ו- TAF.

התחנות הזמינות מסומנות בנקודות צהובות ואדומות על גבי המפה.

העבר את העכבר לנקודה הצבעונית על מנת לראות את שם התחנה.

לאחר מכן, לחץ כדי לראות את תוכן ואת תחזיות מזג האוויר.

כדי לשנות את המפה: לחץ על הכפתורים הירוקים עם הפלוס השחור כדי להתקרב; על הכפתור הירוק עם המקף כדי להתרחק; או בחיצים הירוקים למפות סמוכות.


METAR-TAF: